sensor_id;sensor_type;location;lat;lon;timestamp;P1;durP1;ratioP1;P2;durP2;ratioP2
20294;SDS011;10306;52.128;5.208;2023-02-21T00:00:56;40.70;;;18.03;;
20294;SDS011;10306;52.128;5.208;2023-02-21T00:03:40;36.93;;;18.73;;
20294;SDS011;10306;52.128;5.208;2023-02-21T00:06:25;39.67;;;17.60;;
20294;SDS011;10306;52.128;5.208;2023-02-21T00:09:09;34.00;;;18.37;;
20294;SDS011;10306;52.128;5.208;2023-02-21T00:11:54;41.67;;;18.73;;
20294;SDS011;10306;52.128;5.208;2023-02-21T00:14:39;35.63;;;17.97;;
20294;SDS011;10306;52.128;5.208;2023-02-21T00:17:23;44.20;;;18.53;;
20294;SDS011;10306;52.128;5.208;2023-02-21T00:20:08;39.50;;;18.40;;
20294;SDS011;10306;52.128;5.208;2023-02-21T00:22:52;39.17;;;18.97;;
20294;SDS011;10306;52.128;5.208;2023-02-21T00:25:37;41.60;;;17.90;;
20294;SDS011;10306;52.128;5.208;2023-02-21T00:28:21;36.03;;;17.43;;
20294;SDS011;10306;52.128;5.208;2023-02-21T00:31:06;40.57;;;17.17;;
20294;SDS011;10306;52.128;5.208;2023-02-21T00:33:50;39.53;;;18.80;;
20294;SDS011;10306;52.128;5.208;2023-02-21T00:36:35;40.13;;;18.17;;
20294;SDS011;10306;52.128;5.208;2023-02-21T00:39:20;38.33;;;17.77;;
20294;SDS011;10306;52.128;5.208;2023-02-21T00:42:05;39.50;;;17.57;;
20294;SDS011;10306;52.128;5.208;2023-02-21T00:44:49;47.93;;;19.40;;
20294;SDS011;10306;52.128;5.208;2023-02-21T00:47:34;43.27;;;17.80;;
20294;SDS011;10306;52.128;5.208;2023-02-21T00:50:18;39.90;;;16.43;;
20294;SDS011;10306;52.128;5.208;2023-02-21T00:53:03;35.07;;;19.10;;
20294;SDS011;10306;52.128;5.208;2023-02-21T00:55:47;49.33;;;20.70;;
20294;SDS011;10306;52.128;5.208;2023-02-21T00:58:32;44.73;;;18.50;;
20294;SDS011;10306;52.128;5.208;2023-02-21T01:01:16;42.37;;;18.17;;
20294;SDS011;10306;52.128;5.208;2023-02-21T01:04:01;43.77;;;19.20;;
20294;SDS011;10306;52.128;5.208;2023-02-21T01:06:45;42.87;;;19.37;;
20294;SDS011;10306;52.128;5.208;2023-02-21T01:09:33;46.27;;;21.10;;
20294;SDS011;10306;52.128;5.208;2023-02-21T01:12:18;43.73;;;20.03;;
20294;SDS011;10306;52.128;5.208;2023-02-21T01:15:03;44.30;;;19.63;;
20294;SDS011;10306;52.128;5.208;2023-02-21T01:17:47;40.70;;;19.23;;
20294;SDS011;10306;52.128;5.208;2023-02-21T01:20:32;44.30;;;19.70;;
20294;SDS011;10306;52.128;5.208;2023-02-21T01:23:16;43.57;;;19.40;;
20294;SDS011;10306;52.128;5.208;2023-02-21T01:26:01;51.70;;;22.67;;
20294;SDS011;10306;52.128;5.208;2023-02-21T01:28:46;47.97;;;21.40;;
20294;SDS011;10306;52.128;5.208;2023-02-21T01:31:31;47.30;;;21.50;;
20294;SDS011;10306;52.128;5.208;2023-02-21T01:34:15;44.17;;;20.90;;
20294;SDS011;10306;52.128;5.208;2023-02-21T01:37:00;49.83;;;21.00;;
20294;SDS011;10306;52.128;5.208;2023-02-21T01:39:44;47.20;;;21.53;;
20294;SDS011;10306;52.128;5.208;2023-02-21T01:42:29;49.87;;;21.57;;
20294;SDS011;10306;52.128;5.208;2023-02-21T01:47:58;43.93;;;20.83;;
20294;SDS011;10306;52.128;5.208;2023-02-21T01:50:42;45.40;;;21.37;;
20294;SDS011;10306;52.128;5.208;2023-02-21T01:53:27;46.87;;;20.93;;
20294;SDS011;10306;52.128;5.208;2023-02-21T01:56:11;48.83;;;21.93;;
20294;SDS011;10306;52.128;5.208;2023-02-21T01:58:58;43.13;;;20.97;;
20294;SDS011;10306;52.128;5.208;2023-02-21T02:04:31;40.37;;;20.57;;
20294;SDS011;10306;52.128;5.208;2023-02-21T02:07:17;41.93;;;20.60;;
20294;SDS011;10306;52.128;5.208;2023-02-21T02:10:02;40.00;;;20.03;;
20294;SDS011;10306;52.128;5.208;2023-02-21T02:12:54;40.50;;;19.80;;
20294;SDS011;10306;52.128;5.208;2023-02-21T02:18:05;40.20;;;20.33;;
20294;SDS011;10306;52.128;5.208;2023-02-21T02:20:59;39.10;;;19.97;;
20294;SDS011;10306;52.128;5.208;2023-02-21T02:26:13;44.40;;;19.87;;
20294;SDS011;10306;52.128;5.208;2023-02-21T02:34:02;44.73;;;20.43;;
20294;SDS011;10306;52.128;5.208;2023-02-21T02:36:33;39.47;;;19.67;;
20294;SDS011;10306;52.128;5.208;2023-02-21T02:39:09;42.77;;;20.80;;
20294;SDS011;10306;52.128;5.208;2023-02-21T02:41:45;43.90;;;21.20;;
20294;SDS011;10306;52.128;5.208;2023-02-21T02:44:35;43.43;;;19.33;;
20294;SDS011;10306;52.128;5.208;2023-02-21T02:46:58;41.30;;;20.17;;
20294;SDS011;10306;52.128;5.208;2023-02-21T02:49:27;55.13;;;21.63;;
20294;SDS011;10306;52.128;5.208;2023-02-21T02:51:54;61.77;;;23.10;;
20294;SDS011;10306;52.128;5.208;2023-02-21T02:54:20;51.03;;;21.30;;
20294;SDS011;10306;52.128;5.208;2023-02-21T02:56:46;55.37;;;24.17;;
20294;SDS011;10306;52.128;5.208;2023-02-21T02:59:19;48.27;;;21.57;;
20294;SDS011;10306;52.128;5.208;2023-02-21T03:04:19;56.00;;;23.03;;
20294;SDS011;10306;52.128;5.208;2023-02-21T03:06:57;54.83;;;23.50;;
20294;SDS011;10306;52.128;5.208;2023-02-21T03:12:08;59.83;;;23.73;;
20294;SDS011;10306;52.128;5.208;2023-02-21T03:14:40;52.77;;;24.63;;
20294;SDS011;10306;52.128;5.208;2023-02-21T03:17:10;55.97;;;24.13;;
20294;SDS011;10306;52.128;5.208;2023-02-21T03:19:38;51.47;;;23.50;;
20294;SDS011;10306;52.128;5.208;2023-02-21T03:22:09;52.47;;;23.07;;
20294;SDS011;10306;52.128;5.208;2023-02-21T03:24:35;52.50;;;22.97;;
20294;SDS011;10306;52.128;5.208;2023-02-21T03:27:05;62.03;;;23.27;;
20294;SDS011;10306;52.128;5.208;2023-02-21T03:29:32;54.70;;;24.17;;
20294;SDS011;10306;52.128;5.208;2023-02-21T03:34:39;58.60;;;24.87;;
20294;SDS011;10306;52.128;5.208;2023-02-21T03:37:06;49.73;;;23.53;;
20294;SDS011;10306;52.128;5.208;2023-02-21T03:39:33;51.20;;;23.30;;
20294;SDS011;10306;52.128;5.208;2023-02-21T03:41:59;52.63;;;22.37;;
20294;SDS011;10306;52.128;5.208;2023-02-21T03:44:25;56.67;;;23.13;;
20294;SDS011;10306;52.128;5.208;2023-02-21T03:46:51;44.90;;;23.37;;
20294;SDS011;10306;52.128;5.208;2023-02-21T03:49:18;51.10;;;23.77;;
20294;SDS011;10306;52.128;5.208;2023-02-21T03:51:44;53.37;;;23.57;;
20294;SDS011;10306;52.128;5.208;2023-02-21T03:54:10;52.57;;;23.63;;
20294;SDS011;10306;52.128;5.208;2023-02-21T03:56:36;50.40;;;24.60;;
20294;SDS011;10306;52.128;5.208;2023-02-21T03:59:02;56.47;;;24.70;;
20294;SDS011;10306;52.128;5.208;2023-02-21T04:01:28;50.33;;;23.50;;
20294;SDS011;10306;52.128;5.208;2023-02-21T04:03:54;57.83;;;25.63;;
20294;SDS011;10306;52.128;5.208;2023-02-21T04:06:19;58.40;;;22.67;;
20294;SDS011;10306;52.128;5.208;2023-02-21T04:08:45;56.57;;;23.63;;
20294;SDS011;10306;52.128;5.208;2023-02-21T04:11:11;56.50;;;23.50;;
20294;SDS011;10306;52.128;5.208;2023-02-21T04:13:37;51.27;;;23.40;;
20294;SDS011;10306;52.128;5.208;2023-02-21T04:16:03;63.97;;;25.03;;
20294;SDS011;10306;52.128;5.208;2023-02-21T04:18:29;56.47;;;23.47;;
20294;SDS011;10306;52.128;5.208;2023-02-21T04:20:55;59.10;;;24.63;;
20294;SDS011;10306;52.128;5.208;2023-02-21T04:23:21;59.03;;;23.77;;
20294;SDS011;10306;52.128;5.208;2023-02-21T04:25:47;57.43;;;24.63;;
20294;SDS011;10306;52.128;5.208;2023-02-21T04:28:13;60.50;;;23.60;;
20294;SDS011;10306;52.128;5.208;2023-02-21T04:30:39;54.73;;;24.83;;
20294;SDS011;10306;52.128;5.208;2023-02-21T04:33:05;61.20;;;26.50;;
20294;SDS011;10306;52.128;5.208;2023-02-21T04:35:31;55.70;;;24.67;;
20294;SDS011;10306;52.128;5.208;2023-02-21T04:37:57;59.53;;;24.73;;
20294;SDS011;10306;52.128;5.208;2023-02-21T04:40:23;64.17;;;24.87;;
20294;SDS011;10306;52.128;5.208;2023-02-21T04:42:49;66.07;;;26.53;;
20294;SDS011;10306;52.128;5.208;2023-02-21T04:45:15;56.53;;;24.77;;
20294;SDS011;10306;52.128;5.208;2023-02-21T04:47:41;65.63;;;25.57;;
20294;SDS011;10306;52.128;5.208;2023-02-21T04:50:07;65.40;;;26.47;;
20294;SDS011;10306;52.128;5.208;2023-02-21T04:52:33;74.47;;;28.23;;
20294;SDS011;10306;52.128;5.208;2023-02-21T04:54:59;68.67;;;24.30;;
20294;SDS011;10306;52.128;5.208;2023-02-21T04:57:25;66.27;;;26.27;;
20294;SDS011;10306;52.128;5.208;2023-02-21T04:59:54;73.07;;;25.07;;
20294;SDS011;10306;52.128;5.208;2023-02-21T05:02:20;64.87;;;25.77;;
20294;SDS011;10306;52.128;5.208;2023-02-21T05:04:46;63.17;;;25.73;;
20294;SDS011;10306;52.128;5.208;2023-02-21T05:07:12;73.90;;;26.27;;
20294;SDS011;10306;52.128;5.208;2023-02-21T05:09:38;69.70;;;25.17;;
20294;SDS011;10306;52.128;5.208;2023-02-21T05:12:04;74.03;;;26.33;;
20294;SDS011;10306;52.128;5.208;2023-02-21T05:14:35;72.07;;;26.17;;
20294;SDS011;10306;52.128;5.208;2023-02-21T05:17:02;75.17;;;27.43;;
20294;SDS011;10306;52.128;5.208;2023-02-21T05:19:28;73.63;;;25.97;;
20294;SDS011;10306;52.128;5.208;2023-02-21T05:21:55;74.87;;;29.13;;
20294;SDS011;10306;52.128;5.208;2023-02-21T05:24:21;80.63;;;29.90;;
20294;SDS011;10306;52.128;5.208;2023-02-21T05:26:47;69.97;;;27.40;;
20294;SDS011;10306;52.128;5.208;2023-02-21T05:29:13;76.90;;;26.37;;
20294;SDS011;10306;52.128;5.208;2023-02-21T05:31:39;69.57;;;26.80;;
20294;SDS011;10306;52.128;5.208;2023-02-21T05:34:05;80.20;;;27.77;;
20294;SDS011;10306;52.128;5.208;2023-02-21T05:36:31;80.87;;;27.53;;
20294;SDS011;10306;52.128;5.208;2023-02-21T05:38:57;84.33;;;27.17;;
20294;SDS011;10306;52.128;5.208;2023-02-21T05:41:23;82.10;;;28.33;;
20294;SDS011;10306;52.128;5.208;2023-02-21T05:43:49;78.97;;;27.60;;
20294;SDS011;10306;52.128;5.208;2023-02-21T05:48:44;82.93;;;28.13;;
20294;SDS011;10306;52.128;5.208;2023-02-21T05:51:10;71.37;;;27.17;;
20294;SDS011;10306;52.128;5.208;2023-02-21T05:53:36;78.63;;;28.00;;
20294;SDS011;10306;52.128;5.208;2023-02-21T05:56:02;77.07;;;26.53;;
20294;SDS011;10306;52.128;5.208;2023-02-21T05:58:28;75.97;;;27.53;;
20294;SDS011;10306;52.128;5.208;2023-02-21T06:00:54;84.73;;;28.70;;
20294;SDS011;10306;52.128;5.208;2023-02-21T06:03:20;95.10;;;27.67;;
20294;SDS011;10306;52.128;5.208;2023-02-21T06:05:46;88.30;;;27.50;;
20294;SDS011;10306;52.128;5.208;2023-02-21T06:08:12;77.83;;;26.50;;
20294;SDS011;10306;52.128;5.208;2023-02-21T06:10:38;82.43;;;27.33;;
20294;SDS011;10306;52.128;5.208;2023-02-21T06:13:04;77.83;;;26.97;;
20294;SDS011;10306;52.128;5.208;2023-02-21T06:15:30;70.83;;;28.03;;
20294;SDS011;10306;52.128;5.208;2023-02-21T06:17:56;73.17;;;25.43;;
20294;SDS011;10306;52.128;5.208;2023-02-21T06:20:22;85.27;;;26.80;;
20294;SDS011;10306;52.128;5.208;2023-02-21T06:22:48;85.63;;;27.53;;
20294;SDS011;10306;52.128;5.208;2023-02-21T06:25:14;81.10;;;28.40;;
20294;SDS011;10306;52.128;5.208;2023-02-21T06:27:40;83.47;;;29.73;;
20294;SDS011;10306;52.128;5.208;2023-02-21T06:30:08;82.63;;;27.33;;
20294;SDS011;10306;52.128;5.208;2023-02-21T06:32:34;81.23;;;27.00;;
20294;SDS011;10306;52.128;5.208;2023-02-21T06:35:00;91.37;;;30.27;;
20294;SDS011;10306;52.128;5.208;2023-02-21T06:37:26;90.27;;;29.70;;
20294;SDS011;10306;52.128;5.208;2023-02-21T06:39:52;88.80;;;29.93;;
20294;SDS011;10306;52.128;5.208;2023-02-21T06:42:18;86.33;;;28.23;;
20294;SDS011;10306;52.128;5.208;2023-02-21T06:44:45;86.83;;;27.37;;
20294;SDS011;10306;52.128;5.208;2023-02-21T06:47:11;81.77;;;30.00;;
20294;SDS011;10306;52.128;5.208;2023-02-21T06:49:37;83.97;;;27.87;;
20294;SDS011;10306;52.128;5.208;2023-02-21T06:52:03;82.07;;;29.37;;
20294;SDS011;10306;52.128;5.208;2023-02-21T06:54:29;84.67;;;28.50;;
20294;SDS011;10306;52.128;5.208;2023-02-21T06:56:55;91.80;;;28.77;;
20294;SDS011;10306;52.128;5.208;2023-02-21T06:59:22;79.17;;;28.77;;
20294;SDS011;10306;52.128;5.208;2023-02-21T07:01:49;82.47;;;27.67;;
20294;SDS011;10306;52.128;5.208;2023-02-21T07:04:14;84.90;;;28.23;;
20294;SDS011;10306;52.128;5.208;2023-02-21T07:06:40;90.03;;;28.70;;
20294;SDS011;10306;52.128;5.208;2023-02-21T07:09:06;97.27;;;30.90;;
20294;SDS011;10306;52.128;5.208;2023-02-21T07:11:33;84.40;;;28.07;;
20294;SDS011;10306;52.128;5.208;2023-02-21T07:13:59;93.70;;;30.63;;
20294;SDS011;10306;52.128;5.208;2023-02-21T07:16:26;91.03;;;30.40;;
20294;SDS011;10306;52.128;5.208;2023-02-21T07:18:52;97.73;;;29.90;;
20294;SDS011;10306;52.128;5.208;2023-02-21T07:21:18;100.27;;;30.70;;
20294;SDS011;10306;52.128;5.208;2023-02-21T07:23:45;90.27;;;30.70;;
20294;SDS011;10306;52.128;5.208;2023-02-21T07:26:12;98.47;;;31.60;;
20294;SDS011;10306;52.128;5.208;2023-02-21T07:28:38;90.70;;;29.30;;
20294;SDS011;10306;52.128;5.208;2023-02-21T07:31:05;86.13;;;28.27;;
20294;SDS011;10306;52.128;5.208;2023-02-21T07:33:31;88.17;;;30.27;;
20294;SDS011;10306;52.128;5.208;2023-02-21T07:35:57;101.17;;;29.20;;
20294;SDS011;10306;52.128;5.208;2023-02-21T07:38:23;90.90;;;28.60;;
20294;SDS011;10306;52.128;5.208;2023-02-21T07:40:50;93.20;;;28.93;;
20294;SDS011;10306;52.128;5.208;2023-02-21T07:43:19;87.37;;;30.17;;
20294;SDS011;10306;52.128;5.208;2023-02-21T07:45:45;100.30;;;31.47;;
20294;SDS011;10306;52.128;5.208;2023-02-21T07:48:11;107.90;;;31.40;;
20294;SDS011;10306;52.128;5.208;2023-02-21T07:50:42;101.97;;;31.93;;
20294;SDS011;10306;52.128;5.208;2023-02-21T07:53:10;102.03;;;30.17;;
20294;SDS011;10306;52.128;5.208;2023-02-21T07:55:36;99.50;;;29.77;;
20294;SDS011;10306;52.128;5.208;2023-02-21T07:58:02;93.13;;;28.37;;
20294;SDS011;10306;52.128;5.208;2023-02-21T08:00:28;97.07;;;30.57;;
20294;SDS011;10306;52.128;5.208;2023-02-21T08:02:54;105.57;;;31.40;;
20294;SDS011;10306;52.128;5.208;2023-02-21T08:05:20;96.23;;;30.53;;
20294;SDS011;10306;52.128;5.208;2023-02-21T08:07:46;92.37;;;28.60;;
20294;SDS011;10306;52.128;5.208;2023-02-21T08:10:13;95.63;;;30.30;;
20294;SDS011;10306;52.128;5.208;2023-02-21T08:12:43;89.53;;;28.53;;
20294;SDS011;10306;52.128;5.208;2023-02-21T08:15:09;100.60;;;32.33;;
20294;SDS011;10306;52.128;5.208;2023-02-21T08:17:35;102.47;;;29.30;;
20294;SDS011;10306;52.128;5.208;2023-02-21T08:20:01;106.00;;;31.10;;
20294;SDS011;10306;52.128;5.208;2023-02-21T08:22:28;100.17;;;30.23;;
20294;SDS011;10306;52.128;5.208;2023-02-21T08:24:54;97.27;;;30.33;;
20294;SDS011;10306;52.128;5.208;2023-02-21T08:27:20;99.00;;;30.90;;
20294;SDS011;10306;52.128;5.208;2023-02-21T08:29:48;92.77;;;30.93;;
20294;SDS011;10306;52.128;5.208;2023-02-21T08:32:14;99.17;;;29.90;;
20294;SDS011;10306;52.128;5.208;2023-02-21T08:34:43;96.53;;;30.00;;
20294;SDS011;10306;52.128;5.208;2023-02-21T08:37:09;102.70;;;29.73;;
20294;SDS011;10306;52.128;5.208;2023-02-21T08:39:43;93.30;;;29.43;;
20294;SDS011;10306;52.128;5.208;2023-02-21T08:42:10;104.20;;;31.30;;
20294;SDS011;10306;52.128;5.208;2023-02-21T08:44:36;95.27;;;29.50;;
20294;SDS011;10306;52.128;5.208;2023-02-21T08:47:02;93.07;;;28.33;;
20294;SDS011;10306;52.128;5.208;2023-02-21T08:49:28;100.17;;;30.60;;
20294;SDS011;10306;52.128;5.208;2023-02-21T08:51:53;87.73;;;28.83;;
20294;SDS011;10306;52.128;5.208;2023-02-21T08:54:19;96.20;;;29.93;;
20294;SDS011;10306;52.128;5.208;2023-02-21T08:56:45;92.97;;;28.77;;
20294;SDS011;10306;52.128;5.208;2023-02-21T08:59:12;88.93;;;28.73;;
20294;SDS011;10306;52.128;5.208;2023-02-21T09:01:38;94.13;;;28.60;;
20294;SDS011;10306;52.128;5.208;2023-02-21T09:04:04;97.13;;;29.83;;
20294;SDS011;10306;52.128;5.208;2023-02-21T09:06:30;94.80;;;28.37;;
20294;SDS011;10306;52.128;5.208;2023-02-21T09:08:57;98.43;;;29.70;;
20294;SDS011;10306;52.128;5.208;2023-02-21T09:11:23;105.17;;;29.70;;
20294;SDS011;10306;52.128;5.208;2023-02-21T09:13:48;100.47;;;28.53;;
20294;SDS011;10306;52.128;5.208;2023-02-21T09:16:16;89.43;;;25.97;;
20294;SDS011;10306;52.128;5.208;2023-02-21T09:18:42;95.27;;;29.13;;
20294;SDS011;10306;52.128;5.208;2023-02-21T09:21:08;96.40;;;26.90;;
20294;SDS011;10306;52.128;5.208;2023-02-21T09:23:34;98.63;;;28.83;;
20294;SDS011;10306;52.128;5.208;2023-02-21T09:26:00;99.10;;;28.77;;
20294;SDS011;10306;52.128;5.208;2023-02-21T09:28:26;86.73;;;25.90;;
20294;SDS011;10306;52.128;5.208;2023-02-21T09:30:53;84.87;;;26.70;;
20294;SDS011;10306;52.128;5.208;2023-02-21T09:33:19;97.63;;;28.27;;
20294;SDS011;10306;52.128;5.208;2023-02-21T09:35:45;88.63;;;25.83;;
20294;SDS011;10306;52.128;5.208;2023-02-21T09:38:11;102.67;;;27.30;;
20294;SDS011;10306;52.128;5.208;2023-02-21T09:40:43;88.93;;;25.40;;
20294;SDS011;10306;52.128;5.208;2023-02-21T09:43:11;86.40;;;24.77;;
20294;SDS011;10306;52.128;5.208;2023-02-21T09:45:39;103.97;;;28.80;;
20294;SDS011;10306;52.128;5.208;2023-02-21T09:48:19;92.23;;;25.03;;
20294;SDS011;10306;52.128;5.208;2023-02-21T09:50:48;95.97;;;26.23;;
20294;SDS011;10306;52.128;5.208;2023-02-21T09:53:19;91.80;;;27.17;;
20294;SDS011;10306;52.128;5.208;2023-02-21T09:55:47;102.37;;;27.00;;
20294;SDS011;10306;52.128;5.208;2023-02-21T09:58:16;94.97;;;26.13;;
20294;SDS011;10306;52.128;5.208;2023-02-21T10:00:43;92.20;;;24.80;;
20294;SDS011;10306;52.128;5.208;2023-02-21T10:05:41;89.63;;;25.33;;
20294;SDS011;10306;52.128;5.208;2023-02-21T10:08:12;85.33;;;24.97;;
20294;SDS011;10306;52.128;5.208;2023-02-21T10:10:46;90.13;;;25.20;;
20294;SDS011;10306;52.128;5.208;2023-02-21T10:15:52;94.77;;;27.70;;
20294;SDS011;10306;52.128;5.208;2023-02-21T10:18:26;91.03;;;26.77;;
20294;SDS011;10306;52.128;5.208;2023-02-21T10:20:54;88.67;;;25.97;;
20294;SDS011;10306;52.128;5.208;2023-02-21T10:23:31;86.20;;;25.63;;
20294;SDS011;10306;52.128;5.208;2023-02-21T10:26:00;91.00;;;26.10;;
20294;SDS011;10306;52.128;5.208;2023-02-21T10:28:31;90.97;;;26.87;;
20294;SDS011;10306;52.128;5.208;2023-02-21T10:30:58;90.13;;;27.17;;
20294;SDS011;10306;52.128;5.208;2023-02-21T10:33:26;90.03;;;26.40;;
20294;SDS011;10306;52.128;5.208;2023-02-21T10:35:52;83.03;;;26.13;;
20294;SDS011;10306;52.128;5.208;2023-02-21T10:38:19;93.13;;;25.87;;
20294;SDS011;10306;52.128;5.208;2023-02-21T10:40:47;86.37;;;26.60;;
20294;SDS011;10306;52.128;5.208;2023-02-21T10:48:08;91.27;;;25.90;;
20294;SDS011;10306;52.128;5.208;2023-02-21T10:50:42;98.63;;;25.77;;
20294;SDS011;10306;52.128;5.208;2023-02-21T10:53:21;82.77;;;25.80;;
20294;SDS011;10306;52.128;5.208;2023-02-21T10:58:32;95.67;;;26.83;;
20294;SDS011;10306;52.128;5.208;2023-02-21T11:01:08;92.27;;;25.67;;
20294;SDS011;10306;52.128;5.208;2023-02-21T11:03:35;97.33;;;27.73;;
20294;SDS011;10306;52.128;5.208;2023-02-21T11:06:01;91.50;;;27.70;;
20294;SDS011;10306;52.128;5.208;2023-02-21T11:08:35;97.97;;;27.33;;
20294;SDS011;10306;52.128;5.208;2023-02-21T11:11:02;98.20;;;28.57;;
20294;SDS011;10306;52.128;5.208;2023-02-21T11:13:28;97.57;;;30.00;;
20294;SDS011;10306;52.128;5.208;2023-02-21T11:18:39;95.17;;;28.43;;
20294;SDS011;10306;52.128;5.208;2023-02-21T11:21:12;94.87;;;24.87;;
20294;SDS011;10306;52.128;5.208;2023-02-21T11:23:43;93.83;;;25.57;;
20294;SDS011;10306;52.128;5.208;2023-02-21T11:26:10;106.30;;;27.33;;
20294;SDS011;10306;52.128;5.208;2023-02-21T11:28:37;97.63;;;26.33;;
20294;SDS011;10306;52.128;5.208;2023-02-21T11:31:05;87.87;;;24.20;;
20294;SDS011;10306;52.128;5.208;2023-02-21T11:33:35;84.93;;;24.83;;
20294;SDS011;10306;52.128;5.208;2023-02-21T11:38:38;88.43;;;24.17;;
20294;SDS011;10306;52.128;5.208;2023-02-21T11:41:16;92.67;;;25.47;;
20294;SDS011;10306;52.128;5.208;2023-02-21T11:43:46;93.23;;;25.23;;
20294;SDS011;10306;52.128;5.208;2023-02-21T11:46:16;93.90;;;25.37;;
20294;SDS011;10306;52.128;5.208;2023-02-21T11:48:55;92.57;;;25.50;;
20294;SDS011;10306;52.128;5.208;2023-02-21T11:51:31;96.50;;;27.30;;
20294;SDS011;10306;52.128;5.208;2023-02-21T11:53:59;88.83;;;26.17;;
20294;SDS011;10306;52.128;5.208;2023-02-21T12:01:28;91.87;;;26.87;;
20294;SDS011;10306;52.128;5.208;2023-02-21T12:04:03;92.10;;;26.70;;
20294;SDS011;10306;52.128;5.208;2023-02-21T12:09:11;86.37;;;26.97;;
20294;SDS011;10306;52.128;5.208;2023-02-21T12:11:52;85.33;;;25.03;;
20294;SDS011;10306;52.128;5.208;2023-02-21T12:14:32;99.67;;;26.97;;
20294;SDS011;10306;52.128;5.208;2023-02-21T12:17:04;93.40;;;27.23;;
20294;SDS011;10306;52.128;5.208;2023-02-21T12:22:49;98.47;;;26.27;;
20294;SDS011;10306;52.128;5.208;2023-02-21T12:27:53;86.23;;;24.97;;
20294;SDS011;10306;52.128;5.208;2023-02-21T12:30:43;86.07;;;25.60;;
20294;SDS011;10306;52.128;5.208;2023-02-21T12:36:18;88.03;;;25.73;;
20294;SDS011;10306;52.128;5.208;2023-02-21T12:38:53;86.53;;;25.40;;
20294;SDS011;10306;52.128;5.208;2023-02-21T12:41:40;79.07;;;24.53;;
20294;SDS011;10306;52.128;5.208;2023-02-21T12:44:21;85.47;;;24.27;;
20294;SDS011;10306;52.128;5.208;2023-02-21T12:46:56;72.50;;;23.60;;
20294;SDS011;10306;52.128;5.208;2023-02-21T12:52:05;61.53;;;19.13;;
20294;SDS011;10306;52.128;5.208;2023-02-21T12:54:45;55.83;;;18.00;;
20294;SDS011;10306;52.128;5.208;2023-02-21T12:57:15;54.80;;;19.67;;
20294;SDS011;10306;52.128;5.208;2023-02-21T13:02:24;49.63;;;15.57;;
20294;SDS011;10306;52.128;5.208;2023-02-21T13:04:53;45.33;;;15.73;;
20294;SDS011;10306;52.128;5.208;2023-02-21T13:07:28;45.33;;;15.53;;
20294;SDS011;10306;52.128;5.208;2023-02-21T13:13:14;42.40;;;15.17;;
20294;SDS011;10306;52.128;5.208;2023-02-21T13:15:15;45.00;;;14.97;;
20294;SDS011;10306;52.128;5.208;2023-02-21T13:17:41;41.53;;;14.00;;
20294;SDS011;10306;52.128;5.208;2023-02-21T13:20:09;35.13;;;13.27;;
20294;SDS011;10306;52.128;5.208;2023-02-21T13:22:41;27.73;;;11.30;;
20294;SDS011;10306;52.128;5.208;2023-02-21T13:25:20;27.07;;;11.67;;
20294;SDS011;10306;52.128;5.208;2023-02-21T13:28:07;28.67;;;10.80;;
20294;SDS011;10306;52.128;5.208;2023-02-21T13:30:39;26.47;;;11.73;;
20294;SDS011;10306;52.128;5.208;2023-02-21T13:33:06;27.93;;;10.67;;
20294;SDS011;10306;52.128;5.208;2023-02-21T13:35:34;27.83;;;11.77;;
20294;SDS011;10306;52.128;5.208;2023-02-21T13:38:00;35.87;;;12.43;;
20294;SDS011;10306;52.128;5.208;2023-02-21T13:40:34;31.23;;;11.90;;
20294;SDS011;10306;52.128;5.208;2023-02-21T13:43:05;34.77;;;12.30;;
20294;SDS011;10306;52.128;5.208;2023-02-21T13:45:35;40.63;;;14.70;;
20294;SDS011;10306;52.128;5.208;2023-02-21T13:53:09;34.43;;;13.47;;
20294;SDS011;10306;52.128;5.208;2023-02-21T13:55:37;34.20;;;13.00;;
20294;SDS011;10306;52.128;5.208;2023-02-21T14:08:14;30.83;;;12.43;;
20294;SDS011;10306;52.128;5.208;2023-02-21T14:15:46;39.23;;;15.00;;
20294;SDS011;10306;52.128;5.208;2023-02-21T14:18:17;37.50;;;13.97;;
20294;SDS011;10306;52.128;5.208;2023-02-21T14:20:45;37.77;;;13.80;;
20294;SDS011;10306;52.128;5.208;2023-02-21T14:23:15;31.83;;;13.13;;
20294;SDS011;10306;52.128;5.208;2023-02-21T14:25:41;35.63;;;14.70;;
20294;SDS011;10306;52.128;5.208;2023-02-21T14:31:02;31.43;;;13.47;;
20294;SDS011;10306;52.128;5.208;2023-02-21T14:33:28;33.03;;;13.43;;
20294;SDS011;10306;52.128;5.208;2023-02-21T14:35:57;22.20;;;11.27;;
20294;SDS011;10306;52.128;5.208;2023-02-21T14:38:24;25.07;;;10.60;;
20294;SDS011;10306;52.128;5.208;2023-02-21T14:41:00;20.10;;;9.73;;
20294;SDS011;10306;52.128;5.208;2023-02-21T15:04:07;8.93;;;6.43;;
20294;SDS011;10306;52.128;5.208;2023-02-21T15:06:38;8.90;;;6.10;;
20294;SDS011;10306;52.128;5.208;2023-02-21T15:09:18;7.93;;;5.27;;
20294;SDS011;10306;52.128;5.208;2023-02-21T15:11:44;8.07;;;6.30;;
20294;SDS011;10306;52.128;5.208;2023-02-21T15:14:18;9.57;;;4.87;;
20294;SDS011;10306;52.128;5.208;2023-02-21T15:16:48;8.70;;;5.93;;
20294;SDS011;10306;52.128;5.208;2023-02-21T15:19:18;10.27;;;6.43;;
20294;SDS011;10306;52.128;5.208;2023-02-21T15:21:44;9.10;;;5.53;;
20294;SDS011;10306;52.128;5.208;2023-02-21T15:24:11;8.87;;;5.50;;
20294;SDS011;10306;52.128;5.208;2023-02-21T15:26:37;10.03;;;5.97;;
20294;SDS011;10306;52.128;5.208;2023-02-21T15:29:05;8.50;;;5.83;;
20294;SDS011;10306;52.128;5.208;2023-02-21T15:31:53;7.60;;;5.20;;
20294;SDS011;10306;52.128;5.208;2023-02-21T15:34:21;7.13;;;5.03;;
20294;SDS011;10306;52.128;5.208;2023-02-21T15:36:48;8.13;;;4.70;;
20294;SDS011;10306;52.128;5.208;2023-02-21T15:39:23;7.67;;;4.80;;
20294;SDS011;10306;52.128;5.208;2023-02-21T15:41:51;6.70;;;4.87;;
20294;SDS011;10306;52.128;5.208;2023-02-21T15:44:25;8.07;;;5.00;;
20294;SDS011;10306;52.128;5.208;2023-02-21T15:46:56;5.93;;;4.73;;
20294;SDS011;10306;52.128;5.208;2023-02-21T15:49:34;6.70;;;4.80;;
20294;SDS011;10306;52.128;5.208;2023-02-21T15:52:02;11.53;;;5.23;;
20294;SDS011;10306;52.128;5.208;2023-02-21T15:54:30;9.53;;;5.30;;
20294;SDS011;10306;52.128;5.208;2023-02-21T15:57:03;7.27;;;5.47;;
20294;SDS011;10306;52.128;5.208;2023-02-21T15:59:30;10.40;;;6.10;;
20294;SDS011;10306;52.128;5.208;2023-02-21T16:04:38;10.50;;;6.40;;
20294;SDS011;10306;52.128;5.208;2023-02-21T16:07:05;8.80;;;6.00;;
20294;SDS011;10306;52.128;5.208;2023-02-21T16:09:32;9.20;;;5.83;;
20294;SDS011;10306;52.128;5.208;2023-02-21T16:12:03;12.33;;;7.00;;
20294;SDS011;10306;52.128;5.208;2023-02-21T16:14:43;11.00;;;7.00;;
20294;SDS011;10306;52.128;5.208;2023-02-21T16:19:49;10.20;;;6.77;;
20294;SDS011;10306;52.128;5.208;2023-02-21T16:22:28;9.70;;;6.67;;
20294;SDS011;10306;52.128;5.208;2023-02-21T16:25:12;9.63;;;6.30;;
20294;SDS011;10306;52.128;5.208;2023-02-21T16:27:39;12.03;;;7.00;;
20294;SDS011;10306;52.128;5.208;2023-02-21T16:30:06;10.30;;;7.10;;
20294;SDS011;10306;52.128;5.208;2023-02-21T16:32:32;16.53;;;7.30;;
20294;SDS011;10306;52.128;5.208;2023-02-21T16:35:03;9.53;;;6.70;;
20294;SDS011;10306;52.128;5.208;2023-02-21T16:37:29;12.37;;;6.97;;
20294;SDS011;10306;52.128;5.208;2023-02-21T16:39:56;10.33;;;7.20;;
20294;SDS011;10306;52.128;5.208;2023-02-21T16:42:22;10.80;;;7.40;;